Flight Track Log - Related Links

Times and Time Zones

All times are in EDT time to prevent confusion due to time zone crossing. See the KFS73 flight status page for this flight to view local times or setup timezone preferences in your user account.

Time Position Orientation Groundspeed Altitude Reporting Facility
EDT Latitude Longitude Course Direction KTS MPH feet Rate Location/Type
Wed 01:38:06 PM 39.0167 -84.3667 128° Southeast 271 312 2,600  Level Cincinnati TRACON
Wed 01:39:01 PM 39.0169 -84.2967 90° East 248 285 3,200 1,128 Climbing Indianapolis Center
Wed 01:40:03 PM 39.0294 -84.2092 80° East 254 292 4,800 2,323 Climbing Indianapolis Center
Wed 01:41:05 PM 39.1017 -84.1822 16° North 268 308 8,000 3,145 Climbing Indianapolis Center
Wed 01:42:07 PM 39.1758 -84.2092 344° North 274 315 11,300 3,000 Climbing Indianapolis Center
Wed 01:43:09 PM 39.2783 -84.2200 355° North 309 356 14,200 2,177 Climbing Indianapolis Center
Wed 01:44:11 PM 39.3686 -84.2425 349° North 328 377 15,800 1,548 Climbing Indianapolis Center
Wed 01:45:13 PM 39.4636 -84.2714 347° North 345 397 17,400 1,512 Climbing Indianapolis Center
Wed 01:46:14 PM 39.5644 -84.2936 350° North 359 413 18,900 780 Climbing Indianapolis Center
Wed 01:47:16 PM 39.6756 -84.3203 350° North 390 449 19,000 48 Climbing Indianapolis Center
Wed 01:48:18 PM 39.7950 -84.3467 350° North 423 487 19,000  Level Indianapolis Center
Wed 01:49:20 PM 39.9169 -84.3744 350° North 434 499 19,000  Level Indianapolis Center
Wed 01:50:22 PM 40.0411 -84.3986 352° North 444 511 19,000 48 Level Indianapolis Center
Wed 01:51:24 PM 40.1706 -84.4000 360° North 455 524 19,100 -195 Climbing Indianapolis Center
Wed 01:52:25 PM 40.2878 -84.4025 359° North 423 487 18,600 -878 Descending Indianapolis Center
Wed 01:53:27 PM 40.4169 -84.4069 358° North 397 457 17,300 -774 Descending Indianapolis Center
Wed 01:54:29 PM 40.5217 -84.4089 359° North 378 435 17,000 -155 Descending Indianapolis Center
Wed 01:56:02 PM 40.6781 -84.4164 358° North 359 413 16,900 -48 Descending Cleveland Center
Wed 01:56:33 PM 40.7264 -84.4144 North 366 421 16,900 65 Level Indianapolis Center
Wed 01:57:34 PM 40.8331 -84.4158 359° North 377 434 17,000 67 Climbing Indianapolis Center
Wed 01:58:02 PM 40.8781 -84.4225 354° North 368 423 17,000  Level Cleveland Center
Wed 01:59:02 PM 40.9822 -84.4258 359° North 368 423 17,000  Level Cleveland Center
Wed 02:00:02 PM 41.0864 -84.4267 360° North 368 423 17,000 -600 Level Cleveland Center
Wed 02:01:02 PM 41.1969 -84.4275 360° North 374 430 15,800 -1,100 Descending Cleveland Center
Wed 02:02:02 PM 41.3114 -84.4344 357° North 391 450 14,800 -950 Descending Cleveland Center
Wed 02:03:02 PM 41.4136 -84.4347 360° North 386 444 13,900 -1,200 Descending Cleveland Center
Wed 02:04:02 PM 41.5136 -84.4381 359° North 366 421 12,400 -1,400 Descending Cleveland Center
Wed 02:05:02 PM 41.6050 -84.4436 357° North 346 398 11,100 -1,100 Descending Cleveland Center
Wed 02:06:02 PM 41.6908 -84.4403 North 323 372 10,200 -550 Descending Cleveland Center
Wed 02:07:02 PM 41.7572 -84.3803 34° Northeast 283 326 10,000 -100 Descending Cleveland Center
Wed 02:08:02 PM 41.8158 -84.3169 39° Northeast 274 315 10,000  Level Cleveland Center
Wed 02:08:57 PM 41.8828 -84.2425 40° Northeast 323 372 10,000 61 Level Cleveland Center
Wed 02:09:40 PM 41.9325 -84.1897 38° Northeast 320 368 10,100 92 Climbing Cleveland Center
Wed 02:10:02 PM 41.9542 -84.1628 43° Northeast 300 345 10,100 -98 Level Cleveland Center
Wed 02:10:41 PM 41.9931 -84.1175 41° Northeast 298 343 10,000 -420 Descending Cleveland Center
Wed 02:11:42 PM 42.0581 -84.0372 43° Northeast 294 338 9,400 -1,587 Descending Cleveland Center
Wed 02:13:16 PM 42.0881 -83.8681 77° East 286 329 5,900 -2,053 Descending FAA TRACON SMA TRACON (SMA)
Wed 02:13:36 PM 42.0886 -83.8383 89° East 268 308 5,500 -1,200 Descending FAA TRACON SMA TRACON (SMA)
Wed 02:13:56 PM 42.0903 -83.8033 86° East 247 284 5,100 -1,317 Descending FAA TRACON SMA TRACON (SMA)
Wed 02:14:17 PM 42.0922 -83.7775 84° East 227 261 4,600 -1,610 Descending FAA TRACON SMA TRACON (SMA)
Wed 02:14:37 PM 42.1003 -83.7536 66° East 236 272 4,000 -1,500 Descending FAA TRACON SMA TRACON (SMA)
Wed 02:14:57 PM 42.1100 -83.7269 64° Northeast 210 242 3,600 -1,200 Descending FAA TRACON SMA TRACON (SMA)
Wed 02:15:17 PM 42.1183 -83.7067 61° Northeast 204 235 3,200 -923 Descending FAA TRACON SMA TRACON (SMA)
Wed 02:15:36 PM 42.1283 -83.6889 53° Northeast 203 234 3,000 -308 Descending FAA TRACON SMA TRACON (SMA)
Wed 02:15:56 PM 42.1389 -83.6711 51° Northeast 165 190 3,000  Level FAA TRACON SMA TRACON (SMA)
Wed 02:16:16 PM 42.1475 -83.6572 50° Northeast 159 183 3,000  Level FAA TRACON SMA TRACON (SMA)
Wed 02:16:36 PM 42.1547 -83.6442 53° Northeast 146 168 3,000 -293 Level FAA TRACON SMA TRACON (SMA)
Wed 02:16:57 PM 42.1642 -83.6300 48° Northeast 140 161 2,800 -293 Descending FAA TRACON SMA TRACON (SMA)
Wed 02:17:17 PM 42.1731 -83.6206 38° Northeast 141 162 2,800 -450 Level FAA TRACON SMA TRACON (SMA)
Wed 02:17:37 PM 42.1814 -83.6092 45° Northeast 141 162 2,500 -1,077 Descending FAA TRACON SMA TRACON (SMA)
Wed 02:17:56 PM 42.1894 -83.5969 48° Northeast 142 163 2,100 -1,231 Descending FAA TRACON SMA TRACON (SMA)
Wed 02:18:16 PM 42.2000 -83.5828 45° Northeast 139 160 1,700 -900 Descending FAA TRACON SMA TRACON (SMA)
Wed 02:18:36 PM 42.2075 -83.5719 47° Northeast 128 147 1,500 -600 Descending FAA TRACON SMA TRACON (SMA)
Wed 02:18:56 PM 42.2147 -83.5608 49° Northeast 130 150 1,300 -750 Descending FAA TRACON SMA TRACON (SMA)
Wed 02:19:16 PM 42.2244 -83.5467 47° Northeast 132 152 1,000 -585 Descending FAA TRACON SMA TRACON (SMA)
Wed 02:19:37 PM 42.2283 -83.5411 47° Northeast 132 152 900 -98 Descending FAA TRACON SMA TRACON (SMA)
Wed 02:20:17 PM 42.2283 -83.5411 346° North 132 152 900  Level FAA TRACON SMA TRACON (SMA)

Login

Don't have an account? Register now (free) for customized features, flight alerts, and more!